Terminal Aerodrome Forecast
Issued by NWS

Home | Current Version | Previous Version | Text Only | Print | Product List | Glossary On
Versions: 1 2 3 4 5 6 7 8 9 10 11 12 13
000
FTUS42 KMLB 251130
TAFTIX
TAF
KTIX 251130Z 2512/2612 09008KT P6SM VCSH SCT025
     FM251400 11012KT P6SM VCSH SCT025 BKN050
     FM251800 09012G20KT P6SM SCT030 BKN060
     FM260000 09010KT P6SM SCT030 SCT250=

USA.gov is the U.S. government's official web portal to all federal, state and local government web resources and services.